Lombardville, Illinois
Current Conditions -  °F | °C
As of 1:55 AM on Monday 22 Dec 2014 (Local Time) from KC75 Reporting Station
Overcast Overcast  
Wind Chill: 28°   Ceiling: 3600
Heat Index: 35°   Visibility: 7mi
Dew Point: 30°   Wind: 8mph
Humidity: 83%   Direction: 160°SSE
Pressure: 29.94"   Gusts: NA
Location:  41.1472°N, 89.6399°W
Report Text: KC75 220755Z AUTO 16007KT 7SM OVC036 02/M01 A2994 RMK AO2 T00161010
Loading
Personal Weather Stations






























Interactive Weather Map New forecast layout! Learn more

10-Day Weather Forecast

Advertisements
Track Severe Weather on mobile